createdAt,value
2018-12-26T00:01:09.806Z,93.80
2018-12-26T00:03:38.238Z,94.10
2018-12-26T00:06:06.647Z,94.10
2018-12-26T00:08:35.050Z,94.50
2018-12-26T00:11:03.735Z,94.50
2018-12-26T00:13:32.130Z,93.90
2018-12-26T00:16:00.534Z,93.50
2018-12-26T00:18:29.032Z,93.70
2018-12-26T00:20:57.973Z,93.70
2018-12-26T00:23:26.650Z,93.30
2018-12-26T00:26:01.554Z,93.60
2018-12-26T00:28:25.767Z,93.40
2018-12-26T00:30:54.153Z,93.20
2018-12-26T00:33:22.558Z,93.70
2018-12-26T00:35:51.267Z,94.00
2018-12-26T00:38:19.994Z,94.50
2018-12-26T00:40:48.691Z,94.60
2018-12-26T00:43:17.384Z,94.50
2018-12-26T00:45:46.064Z,94.30
2018-12-26T00:48:14.852Z,94.50
2018-12-26T00:50:43.836Z,95.20
2018-12-26T00:53:12.625Z,95.30
2018-12-26T00:55:41.319Z,94.70
2018-12-26T00:58:09.727Z,94.00
2018-12-26T01:00:38.127Z,93.70
2018-12-26T01:03:06.537Z,94.00
2018-12-26T01:05:34.950Z,94.00
2018-12-26T01:08:03.402Z,94.80
2018-12-26T01:10:51.142Z,95.70
2018-12-26T01:13:19.541Z,95.70
2018-12-26T01:15:47.946Z,95.80
2018-12-26T01:18:16.342Z,94.80
2018-12-26T01:20:44.733Z,94.70
2018-12-26T01:23:13.463Z,94.60
2018-12-26T01:25:41.998Z,94.50
2018-12-26T01:28:10.639Z,94.80
2018-12-26T01:30:39.281Z,94.80
2018-12-26T01:33:07.665Z,95.10
2018-12-26T01:35:36.080Z,95.40
2018-12-26T01:38:04.469Z,94.90
2018-12-26T01:40:32.875Z,94.80
2018-12-26T01:43:01.271Z,95.30
2018-12-26T01:45:30.009Z,95.90
2018-12-26T01:47:58.403Z,95.20
2018-12-26T01:50:27.075Z,94.70
2018-12-26T01:52:55.752Z,95.40
2018-12-26T01:55:24.155Z,95.30
2018-12-26T01:57:52.555Z,94.80
2018-12-26T02:00:21.307Z,94.60
2018-12-26T02:02:49.709Z,94.30
2018-12-26T02:05:18.115Z,94.60
2018-12-26T02:07:46.519Z,94.30
2018-12-26T02:10:14.923Z,94.30
2018-12-26T02:12:43.314Z,94.40
2018-12-26T02:15:11.714Z,93.70
2018-12-26T02:17:40.670Z,93.30
2018-12-26T02:20:09.081Z,93.00
2018-12-26T02:22:37.737Z,93.40
2018-12-26T02:25:06.931Z,94.10
2018-12-26T02:27:35.624Z,94.40
2018-12-26T02:30:05.561Z,94.10
2018-12-26T02:32:33.972Z,94.50
2018-12-26T02:35:02.370Z,93.90
2018-12-26T02:37:30.777Z,94.00
2018-12-26T02:39:59.189Z,94.10
2018-12-26T02:42:27.843Z,94.50
2018-12-26T02:44:56.523Z,93.80
2018-12-26T02:47:24.959Z,93.50
2018-12-26T02:49:53.703Z,93.30
2018-12-26T02:52:22.134Z,94.00
2018-12-26T02:54:50.531Z,93.80
2018-12-26T02:57:18.952Z,93.70
2018-12-26T02:59:47.353Z,93.50
2018-12-26T03:02:15.774Z,93.30
2018-12-26T03:04:44.171Z,93.30
2018-12-26T03:07:12.824Z,93.30
2018-12-26T03:09:41.226Z,93.80
2018-12-26T03:12:09.957Z,94.10
2018-12-26T03:14:38.351Z,93.60
2018-12-26T03:17:06.765Z,93.90
2018-12-26T03:19:35.473Z,94.20
2018-12-26T03:22:03.953Z,93.60
2018-12-26T03:24:32.352Z,93.60
2018-12-26T03:27:01.026Z,93.70
2018-12-26T03:29:29.422Z,93.50
2018-12-26T03:31:58.093Z,93.80
2018-12-26T03:34:26.776Z,93.40
2018-12-26T03:36:55.196Z,93.40
2018-12-26T03:39:23.609Z,93.40
2018-12-26T03:41:52.418Z,93.50
2018-12-26T03:44:21.761Z,93.80
2018-12-26T03:46:51.547Z,93.70
2018-12-26T03:49:19.938Z,93.80
2018-12-26T03:51:48.367Z,93.30
2018-12-26T03:54:17.120Z,93.30
2018-12-26T03:56:45.522Z,94.10
2018-12-26T03:59:13.994Z,94.50
2018-12-26T04:01:42.403Z,93.90
2018-12-26T04:04:10.803Z,93.30
2018-12-26T04:06:39.507Z,93.10
2018-12-26T04:09:08.699Z,94.20
2018-12-26T04:11:37.486Z,94.20
2018-12-26T04:14:06.030Z,94.20
2018-12-26T04:16:34.756Z,94.70
2018-12-26T04:19:03.162Z,94.60
2018-12-26T04:21:31.628Z,94.30
2018-12-26T04:24:00.279Z,94.70
2018-12-26T04:26:28.687Z,95.40
2018-12-26T04:28:57.378Z,94.80
2018-12-26T04:31:25.784Z,94.50
2018-12-26T04:33:54.195Z,94.70
2018-12-26T04:36:22.599Z,94.60
2018-12-26T04:38:51.295Z,94.60
2018-12-26T04:41:19.987Z,94.80
2018-12-26T04:43:48.667Z,95.00
2018-12-26T04:46:17.073Z,95.10
2018-12-26T04:48:45.474Z,95.20
2018-12-26T04:51:13.873Z,95.30
2018-12-26T04:53:42.289Z,95.50
2018-12-26T04:56:10.691Z,95.20
2018-12-26T04:58:39.113Z,94.80
2018-12-26T05:01:07.519Z,94.40
2018-12-26T05:03:35.930Z,94.80
2018-12-26T05:06:04.599Z,95.60
2018-12-26T05:08:33.021Z,95.00
2018-12-26T05:11:01.429Z,94.80
2018-12-26T05:13:29.825Z,94.70
2018-12-26T05:15:58.238Z,94.60
2018-12-26T05:18:26.653Z,94.70
2018-12-26T05:20:55.086Z,94.60
2018-12-26T05:23:23.503Z,95.10
2018-12-26T05:25:51.907Z,95.70
2018-12-26T05:28:20.623Z,95.90
2018-12-26T05:30:49.018Z,95.60
2018-12-26T05:33:17.666Z,95.80
2018-12-26T05:35:46.055Z,95.80
2018-12-26T05:38:14.763Z,95.50
2018-12-26T05:40:43.166Z,95.40
2018-12-26T05:43:11.815Z,95.80
2018-12-26T05:45:40.505Z,95.40
2018-12-26T05:48:09.148Z,95.80
2018-12-26T05:50:37.546Z,95.40
2018-12-26T05:53:06.256Z,94.70
2018-12-26T05:55:36.458Z,95.10
2018-12-26T05:58:05.375Z,95.20
2018-12-26T06:00:33.777Z,94.70
2018-12-26T06:03:02.196Z,94.30
2018-12-26T06:05:30.582Z,94.90
2018-12-26T06:07:59.299Z,94.70
2018-12-26T06:10:27.702Z,94.60
2018-12-26T06:12:56.376Z,94.40
2018-12-26T06:15:24.775Z,94.90
2018-12-26T06:17:53.177Z,94.80
2018-12-26T06:20:21.911Z,94.60
2018-12-26T06:22:50.604Z,94.60
2018-12-26T06:25:19.283Z,94.40
2018-12-26T06:27:51.610Z,94.40
2018-12-26T06:30:17.812Z,94.70
2018-12-26T06:32:46.471Z,94.90
2018-12-26T06:35:15.155Z,94.60
2018-12-26T06:37:43.846Z,94.50
2018-12-26T06:40:12.237Z,94.60
2018-12-26T06:42:40.918Z,94.90
2018-12-26T06:45:09.310Z,94.70
2018-12-26T06:47:37.715Z,95.00
2018-12-26T06:50:06.766Z,95.40
2018-12-26T06:52:35.168Z,95.40
2018-12-26T06:55:03.644Z,95.60
2018-12-26T06:57:32.319Z,96.30
2018-12-26T07:00:00.998Z,96.60
2018-12-26T07:02:29.398Z,96.30
2018-12-26T07:04:57.815Z,97.20
2018-12-26T07:07:26.321Z,96.80
2018-12-26T07:09:54.798Z,97.80
2018-12-26T07:12:23.202Z,97.80
2018-12-26T07:14:51.999Z,98.50
2018-12-26T07:17:20.462Z,98.80
2018-12-26T07:19:48.880Z,99.10
2018-12-26T07:22:17.282Z,99.20
2018-12-26T07:24:45.700Z,99.50
2018-12-26T07:27:14.106Z,99.60
2018-12-26T07:29:42.514Z,99.40
2018-12-26T07:32:10.923Z,99.60
2018-12-26T07:34:42.389Z,99.70
2018-12-26T07:37:10.069Z,99.20
2018-12-26T07:39:38.474Z,99.20
2018-12-26T07:42:07.131Z,99.40
2018-12-26T07:44:35.816Z,98.90
2018-12-26T07:47:04.223Z,99.10
2018-12-26T07:49:32.884Z,98.50
2018-12-26T07:52:01.534Z,99.30
2018-12-26T07:54:29.951Z,99.50
2018-12-26T07:56:58.637Z,99.60
2018-12-26T07:59:27.041Z,99.00
2018-12-26T08:01:55.907Z,98.50
2018-12-26T08:04:24.334Z,98.40
2018-12-26T08:06:52.975Z,98.60
2018-12-26T08:09:21.388Z,98.60
2018-12-26T08:11:50.044Z,98.40
2018-12-26T08:14:18.445Z,98.20
2018-12-26T08:16:46.841Z,98.10
2018-12-26T08:19:15.257Z,98.00
2018-12-26T08:21:43.964Z,98.00
2018-12-26T08:24:12.676Z,98.00
2018-12-26T08:26:41.339Z,98.20
2018-12-26T08:29:10.020Z,97.90
2018-12-26T08:31:38.422Z,97.70
2018-12-26T08:34:07.722Z,97.40
2018-12-26T08:36:36.119Z,97.90
2018-12-26T08:39:06.611Z,98.20
2018-12-26T08:41:35.006Z,98.90
2018-12-26T08:44:03.410Z,99.10
2018-12-26T08:46:32.081Z,99.10
2018-12-26T08:49:00.481Z,98.80
2018-12-26T08:51:28.879Z,99.10
2018-12-26T08:53:57.283Z,98.80
2018-12-26T08:56:25.681Z,98.90
2018-12-26T08:58:54.081Z,98.30
2018-12-26T09:01:22.486Z,98.80
2018-12-26T09:03:50.906Z,98.40
2018-12-26T09:06:19.602Z,98.60
2018-12-26T09:08:48.118Z,98.40
2018-12-26T09:11:16.522Z,98.80
2018-12-26T09:13:44.917Z,99.00
2018-12-26T09:16:13.631Z,99.40
2018-12-26T09:18:42.027Z,98.90
2018-12-26T09:21:10.697Z,98.70
2018-12-26T09:23:39.091Z,98.40
2018-12-26T09:26:07.639Z,98.00
2018-12-26T09:28:43.616Z,98.20
2018-12-26T09:31:06.471Z,98.40
2018-12-26T09:33:34.919Z,97.90
2018-12-26T09:36:03.318Z,98.70
2018-12-26T09:38:32.019Z,98.90
2018-12-26T09:41:00.702Z,98.70
2018-12-26T09:43:29.099Z,97.10
2018-12-26T09:45:57.767Z,97.50
2018-12-26T09:48:26.180Z,97.20
2018-12-26T09:50:54.582Z,97.50
2018-12-26T09:53:22.974Z,97.00
2018-12-26T09:55:51.692Z,96.30
2018-12-26T09:58:20.091Z,96.40
2018-12-26T10:00:48.761Z,96.30
2018-12-26T10:03:17.159Z,95.20
2018-12-26T10:05:45.560Z,94.40
2018-12-26T10:08:14.205Z,93.30
2018-12-26T10:10:42.903Z,92.40
2018-12-26T10:13:11.310Z,90.90
2018-12-26T10:15:39.745Z,90.40
2018-12-26T10:18:08.146Z,90.10
2018-12-26T10:20:36.562Z,90.20
2018-12-26T10:23:04.966Z,87.90
2018-12-26T10:25:33.362Z,78.50
2018-12-26T10:28:01.798Z,80.40
2018-12-26T10:30:30.539Z,83.20
2018-12-26T10:32:58.950Z,84.10
2018-12-26T10:35:27.603Z,85.30
2018-12-26T10:37:56.296Z,86.50
2018-12-26T10:40:24.699Z,87.90
2018-12-26T10:42:53.356Z,88.10
2018-12-26T10:45:21.749Z,88.70
2018-12-26T10:47:50.158Z,89.40
2018-12-26T10:50:18.550Z,90.00
2018-12-26T10:52:47.287Z,90.80
2018-12-26T10:55:15.971Z,91.00
2018-12-26T10:57:44.963Z,91.00
2018-12-26T11:00:13.431Z,90.70
2018-12-26T11:02:41.846Z,89.90
2018-12-26T11:05:10.508Z,91.10
2018-12-26T11:07:39.199Z,90.90
2018-12-26T11:10:08.081Z,90.50
2018-12-26T11:12:36.488Z,90.10
2018-12-26T11:15:07.719Z,89.50
2018-12-26T11:17:36.125Z,89.50
2018-12-26T11:20:07.595Z,89.70
2018-12-26T11:22:36.366Z,90.00
2018-12-26T11:25:07.311Z,90.20
2018-12-26T11:27:36.174Z,90.50
2018-12-26T11:30:06.982Z,88.80
2018-12-26T11:32:35.394Z,89.10
2018-12-26T11:35:04.365Z,89.00
2018-12-26T11:37:32.991Z,88.70
2018-12-26T11:40:01.459Z,87.40
2018-12-26T11:42:29.867Z,87.90
2018-12-26T11:44:58.261Z,88.30
2018-12-26T11:47:26.667Z,89.80
2018-12-26T11:49:55.082Z,79.60
2018-12-26T11:52:23.465Z,76.20
2018-12-26T11:54:52.128Z,78.50
2018-12-26T11:57:20.926Z,81.90
2018-12-26T11:59:49.703Z,83.00
2018-12-26T12:02:20.634Z,83.80
2018-12-26T12:04:48.222Z,83.10
2018-12-26T12:07:16.631Z,84.10
2018-12-26T12:09:45.446Z,84.70
2018-12-26T12:12:13.855Z,85.30
2018-12-26T12:14:42.582Z,85.60
2018-12-26T12:17:11.009Z,85.90
2018-12-26T12:19:39.417Z,86.50
2018-12-26T12:22:08.094Z,86.90
2018-12-26T12:24:36.791Z,86.10
2018-12-26T12:27:05.192Z,86.50
2018-12-26T12:29:36.067Z,87.00
2018-12-26T12:32:03.702Z,87.10
2018-12-26T12:34:32.114Z,87.10
2018-12-26T12:37:00.825Z,86.50
2018-12-26T12:39:29.213Z,86.30
2018-12-26T12:41:57.682Z,86.50
2018-12-26T12:44:26.090Z,87.10
2018-12-26T12:46:54.480Z,87.10
2018-12-26T12:49:24.765Z,87.80
2018-12-26T12:51:53.159Z,79.40
2018-12-26T12:54:21.825Z,75.80
2018-12-26T12:56:50.516Z,77.30
2018-12-26T12:59:19.305Z,78.80
2018-12-26T13:01:47.706Z,80.80
2018-12-26T13:04:16.363Z,81.50
2018-12-26T13:06:45.058Z,82.30
2018-12-26T13:09:13.748Z,83.40
2018-12-26T13:11:42.426Z,83.60
2018-12-26T13:14:10.832Z,85.10
2018-12-26T13:16:39.504Z,85.10
2018-12-26T13:19:07.895Z,85.60
2018-12-26T13:21:36.293Z,86.00
2018-12-26T13:24:04.942Z,86.00
2018-12-26T13:26:33.347Z,85.10
2018-12-26T13:29:01.764Z,85.20
2018-12-26T13:31:30.289Z,85.20
2018-12-26T13:33:59.079Z,85.70
2018-12-26T13:36:27.490Z,85.90
2018-12-26T13:38:55.886Z,86.30
2018-12-26T13:41:24.631Z,86.80
2018-12-26T13:43:53.323Z,87.10
2018-12-26T13:46:21.714Z,86.50
2018-12-26T13:48:50.114Z,87.20
2018-12-26T13:51:18.517Z,87.60
2018-12-26T13:53:46.913Z,87.80
2018-12-26T13:56:15.324Z,88.00
2018-12-26T13:58:43.705Z,88.40
2018-12-26T14:01:12.118Z,88.40
2018-12-26T14:03:40.860Z,88.20
2018-12-26T14:06:09.743Z,88.00
2018-12-26T14:08:38.172Z,88.10
2018-12-26T14:11:06.913Z,87.80
2018-12-26T14:13:35.799Z,88.30
2018-12-26T14:16:04.591Z,87.90
2018-12-26T14:18:32.987Z,87.50
2018-12-26T14:21:01.659Z,87.70
2018-12-26T14:23:30.051Z,87.70
2018-12-26T14:25:58.443Z,87.20
2018-12-26T14:28:27.104Z,87.10
2018-12-26T14:30:55.498Z,87.20
2018-12-26T14:33:24.166Z,87.30
2018-12-26T14:35:55.883Z,87.50
2018-12-26T14:38:24.292Z,87.40
2018-12-26T14:40:52.685Z,87.60
2018-12-26T14:43:21.370Z,87.50
2018-12-26T14:45:50.054Z,87.50
2018-12-26T14:48:18.466Z,88.10
2018-12-26T14:50:46.862Z,88.20
2018-12-26T14:53:15.510Z,88.90
2018-12-26T14:55:43.911Z,89.20
2018-12-26T14:58:12.323Z,89.00
2018-12-26T15:00:40.710Z,88.80
2018-12-26T15:03:09.435Z,89.40
2018-12-26T15:05:37.812Z,89.50
2018-12-26T15:08:06.494Z,89.80
2018-12-26T15:10:34.894Z,89.80
2018-12-26T15:13:03.569Z,89.40
2018-12-26T15:15:31.971Z,89.50
2018-12-26T15:18:00.631Z,89.90
2018-12-26T15:20:29.311Z,89.20
2018-12-26T15:22:57.712Z,89.10
2018-12-26T15:25:26.107Z,88.80
2018-12-26T15:27:54.512Z,89.20
2018-12-26T15:30:28.539Z,89.40
2018-12-26T15:32:53.669Z,89.50
2018-12-26T15:35:22.063Z,89.90
2018-12-26T15:37:50.467Z,89.70
2018-12-26T15:40:19.216Z,89.80
2018-12-26T15:42:47.613Z,89.70
2018-12-26T15:45:16.283Z,89.80
2018-12-26T15:47:44.962Z,90.00
2018-12-26T15:50:13.656Z,90.50
2018-12-26T15:52:42.339Z,90.40
2018-12-26T15:55:10.737Z,90.70
2018-12-26T15:57:39.134Z,90.60
2018-12-26T16:00:09.419Z,90.80
2018-12-26T16:02:37.891Z,90.50
2018-12-26T16:05:07.367Z,90.50
2018-12-26T16:07:36.095Z,90.70
2018-12-26T16:10:06.273Z,90.60
2018-12-26T16:12:34.662Z,90.60
2018-12-26T16:15:03.807Z,90.80
2018-12-26T16:17:32.211Z,91.50
2018-12-26T16:20:00.859Z,91.60
2018-12-26T16:22:29.262Z,91.80
2018-12-26T16:24:57.671Z,91.80
2018-12-26T16:27:26.408Z,91.70
2018-12-26T16:29:54.815Z,92.10
2018-12-26T16:32:23.212Z,91.90
2018-12-26T16:34:51.610Z,92.10
2018-12-26T16:37:20.005Z,92.00
2018-12-26T16:39:48.418Z,92.70
2018-12-26T16:42:17.058Z,92.60
2018-12-26T16:44:45.877Z,92.60
2018-12-26T16:47:14.287Z,92.70
2018-12-26T16:49:42.694Z,93.00
2018-12-26T16:52:11.085Z,92.70
2018-12-26T16:54:39.490Z,93.00
2018-12-26T16:57:08.196Z,93.10
2018-12-26T16:59:36.595Z,92.60
2018-12-26T17:02:04.996Z,92.40
2018-12-26T17:04:34.366Z,92.90
2018-12-26T17:07:02.775Z,93.60
2018-12-26T17:09:31.536Z,93.60
2018-12-26T17:11:59.941Z,93.50
2018-12-26T17:14:28.329Z,93.60
2018-12-26T17:16:57.066Z,93.40
2018-12-26T17:19:25.466Z,93.50
2018-12-26T17:21:53.910Z,99.90
2018-12-26T17:24:22.322Z,83.20
2018-12-26T17:26:50.995Z,78.70
2018-12-26T17:29:19.379Z,80.50
2018-12-26T17:31:48.053Z,83.30
2018-12-26T17:34:16.443Z,85.80
2018-12-26T17:36:44.861Z,87.80
2018-12-26T17:39:13.322Z,89.30
2018-12-26T17:41:41.725Z,90.60
2018-12-26T17:44:10.363Z,90.80
2018-12-26T17:46:38.883Z,91.20
2018-12-26T17:49:07.270Z,91.50
2018-12-26T17:51:35.679Z,91.70
2018-12-26T17:54:07.161Z,92.10
2018-12-26T17:56:38.819Z,92.20
2018-12-26T17:59:19.131Z,92.30
2018-12-26T18:01:56.446Z,92.50
2018-12-26T18:04:24.837Z,92.10
2018-12-26T18:06:53.248Z,91.90
2018-12-26T18:09:21.642Z,91.90
2018-12-26T18:11:51.514Z,91.60
2018-12-26T18:14:19.965Z,91.40
2018-12-26T18:16:48.396Z,91.20
2018-12-26T18:19:17.167Z,91.30
2018-12-26T18:21:45.854Z,91.10
2018-12-26T18:24:14.254Z,91.00
2018-12-26T18:26:42.730Z,90.60
2018-12-26T18:29:11.499Z,90.80
2018-12-26T18:31:39.897Z,91.10
2018-12-26T18:34:08.626Z,90.70
2018-12-26T18:36:37.668Z,90.20
2018-12-26T18:39:07.475Z,90.40
2018-12-26T18:41:37.727Z,90.50
2018-12-26T18:44:06.087Z,90.20
2018-12-26T18:46:34.763Z,90.10
2018-12-26T18:49:03.175Z,90.10
2018-12-26T18:51:31.833Z,90.30
2018-12-26T18:54:00.229Z,90.00
2018-12-26T18:56:28.650Z,89.80
2018-12-26T18:58:57.114Z,90.40
2018-12-26T19:01:30.623Z,90.90
2018-12-26T19:03:55.897Z,90.70
2018-12-26T19:06:24.298Z,90.80
2018-12-26T19:08:52.702Z,90.50
2018-12-26T19:11:21.102Z,90.30
2018-12-26T19:13:49.611Z,90.80
2018-12-26T19:16:17.998Z,90.70
2018-12-26T19:18:46.667Z,90.40
2018-12-26T19:21:15.299Z,90.70
2018-12-26T19:23:43.719Z,90.80
2018-12-26T19:26:12.114Z,91.00
2018-12-26T19:28:40.521Z,90.50
2018-12-26T19:31:08.978Z,90.50
2018-12-26T19:33:37.446Z,90.40
2018-12-26T19:36:06.295Z,90.70
2018-12-26T19:38:35.028Z,90.40
2018-12-26T19:41:03.720Z,90.10
2018-12-26T19:43:32.403Z,90.40
2018-12-26T19:46:00.798Z,90.00
2018-12-26T19:48:29.649Z,89.10
2018-12-26T19:50:58.033Z,90.00
2018-12-26T19:53:26.741Z,89.50
2018-12-26T19:55:55.426Z,89.50
2018-12-26T19:58:24.067Z,89.30
2018-12-26T20:00:52.479Z,89.10
2018-12-26T20:03:20.874Z,88.80
2018-12-26T20:05:49.394Z,89.00
2018-12-26T20:08:18.039Z,89.40
2018-12-26T20:10:46.450Z,89.60
2018-12-26T20:13:14.848Z,89.80
2018-12-26T20:15:43.310Z,89.70
2018-12-26T20:18:11.967Z,88.80
2018-12-26T20:20:40.373Z,88.90
2018-12-26T20:23:08.769Z,89.40
2018-12-26T20:25:37.170Z,88.80
2018-12-26T20:28:05.951Z,89.40
2018-12-26T20:30:34.379Z,89.50
2018-12-26T20:33:02.778Z,89.00
2018-12-26T20:35:31.438Z,88.90
2018-12-26T20:37:59.842Z,88.70
2018-12-26T20:40:28.252Z,89.00
2018-12-26T20:42:56.643Z,88.70
2018-12-26T20:45:25.060Z,88.90
2018-12-26T20:47:53.573Z,88.90
2018-12-26T20:50:22.230Z,88.70
2018-12-26T20:52:50.617Z,88.80
2018-12-26T20:55:19.033Z,88.90
2018-12-26T20:57:47.431Z,89.10
2018-12-26T21:00:16.155Z,89.40
2018-12-26T21:02:44.839Z,89.00
2018-12-26T21:05:13.527Z,89.00
2018-12-26T21:07:41.929Z,89.20
2018-12-26T21:10:10.313Z,89.30
2018-12-26T21:12:38.723Z,89.10
2018-12-26T21:15:07.967Z,89.20
2018-12-26T21:17:36.374Z,89.70
2018-12-26T21:20:06.794Z,89.90
2018-12-26T21:22:35.463Z,89.80
2018-12-26T21:25:04.658Z,89.40
2018-12-26T21:27:33.066Z,88.60
2018-12-26T21:30:01.728Z,88.60
2018-12-26T21:32:30.301Z,88.40
2018-12-26T21:34:58.702Z,88.60
2018-12-26T21:37:27.371Z,88.10
2018-12-26T21:39:55.775Z,88.80
2018-12-26T21:42:24.175Z,88.20
2018-12-26T21:44:52.818Z,88.20
2018-12-26T21:47:21.327Z,87.70
2018-12-26T21:49:50.087Z,87.40
2018-12-26T21:52:18.491Z,86.90
2018-12-26T21:54:46.887Z,87.30
2018-12-26T21:57:15.298Z,87.80
2018-12-26T21:59:43.702Z,88.30
2018-12-26T22:02:12.105Z,88.90
2018-12-26T22:04:40.502Z,89.50
2018-12-26T22:07:08.926Z,89.90
2018-12-26T22:09:37.626Z,89.90
2018-12-26T22:12:06.048Z,89.10
2018-12-26T22:14:34.447Z,89.50
2018-12-26T22:17:02.868Z,89.90
2018-12-26T22:19:31.558Z,89.80
2018-12-26T22:21:59.949Z,90.10
2018-12-26T22:24:28.354Z,90.70
2018-12-26T22:26:56.749Z,90.30
2018-12-26T22:29:25.156Z,90.80
2018-12-26T22:31:53.546Z,90.90
2018-12-26T22:34:21.958Z,90.80
2018-12-26T22:36:50.617Z,90.90
2018-12-26T22:39:19.037Z,90.90
2018-12-26T22:41:47.426Z,91.00
2018-12-26T22:44:15.839Z,90.60
2018-12-26T22:46:44.231Z,90.30
2018-12-26T22:49:12.638Z,90.60
2018-12-26T22:51:42.022Z,90.10
2018-12-26T22:54:10.811Z,90.30
2018-12-26T22:56:39.218Z,90.30
2018-12-26T22:59:07.874Z,90.10
2018-12-26T23:01:36.570Z,90.70
2018-12-26T23:04:04.962Z,90.90
2018-12-26T23:06:33.631Z,91.30
2018-12-26T23:09:02.062Z,91.30
2018-12-26T23:11:30.467Z,91.00
2018-12-26T23:13:58.878Z,90.50
2018-12-26T23:16:27.562Z,90.50
2018-12-26T23:18:58.069Z,90.70
2018-12-26T23:21:26.361Z,91.20
2018-12-26T23:23:54.770Z,91.40
2018-12-26T23:26:23.169Z,90.80
2018-12-26T23:28:51.570Z,90.90
2018-12-26T23:31:19.974Z,90.00
2018-12-26T23:33:48.376Z,90.10
2018-12-26T23:36:16.774Z,90.00
2018-12-26T23:38:45.410Z,89.90
2018-12-26T23:41:14.127Z,89.20
2018-12-26T23:43:42.799Z,89.50
2018-12-26T23:46:11.503Z,89.90
2018-12-26T23:48:40.097Z,90.00
2018-12-26T23:51:08.498Z,89.90
2018-12-26T23:53:37.144Z,90.00
2018-12-26T23:56:05.555Z,90.20
2018-12-26T23:58:33.954Z,90.30
